Time;durP1;ratioP1;P1;durP2;ratioP2;P2;SDS_P1;SDS_P2;PMS_P1;PMS_P2;Temp;Humidity;BMP_temperature;BMP_pressure;BME280_temperature;BME280_humidity;BME280_pressure;Samples;Min_cycle;Max_cycle;Signal;HPM_P1;HPM_P2
2021/08/27 00:00:59;;;;;;;30.58;18.73;;;;;;;23.89;50.48;102384.94;5032456;28;20365;-78
2021/08/27 00:03:25;;;;;;;48.28;19.35;;;;;;;23.93;50.81;102385.81;5032787;28;20440;-79
2021/08/27 00:05:50;;;;;;;37.33;18.33;;;;;;;23.91;51.13;102388.97;5013721;28;20052;-79
2021/08/27 00:08:16;;;;;;;78.00;17.67;;;;;;;23.90;51.14;102392.94;5014019;28;20082;-79
2021/08/27 00:10:42;;;;;;;48.75;18.02;;;;;;;23.92;50.95;102390.59;5013569;28;20030;-78
2021/08/27 00:13:10;;;;;;;53.20;16.08;;;;;;;23.84;51.34;102393.59;5013877;28;20116;-79
2021/08/27 00:15:36;;;;;;;64.80;17.27;;;;;;;23.81;51.23;102397.94;5031675;28;20064;-79
2021/08/27 00:18:02;;;;;;;44.67;16.05;;;;;;;23.84;51.21;102396.38;5032259;28;20096;-78
2021/08/27 00:20:27;;;;;;;22.80;13.93;;;;;;;23.79;50.96;102398.25;5035077;28;20022;-78
2021/08/27 00:22:53;;;;;;;29.55;14.82;;;;;;;23.74;51.17;102390.19;5035048;28;20025;-78
2021/08/27 00:25:19;;;;;;;22.02;14.32;;;;;;;23.71;51.28;102393.69;5035124;28;20036;-78
2021/08/27 00:27:45;;;;;;;23.85;14.85;;;;;;;23.66;51.20;102394.00;5035008;28;20029;-78
2021/08/27 00:30:11;;;;;;;19.90;13.73;;;;;;;23.64;51.53;102393.53;5034928;28;20037;-78
2021/08/27 00:32:37;;;;;;;24.55;14.20;;;;;;;23.56;51.49;102391.72;5035001;28;20099;-78
2021/08/27 00:35:04;;;;;;;33.92;14.27;;;;;;;23.52;51.78;102390.81;5034895;28;20029;-78
2021/08/27 00:37:32;;;;;;;22.02;14.73;;;;;;;23.48;51.77;102393.50;5017069;28;20083;-78
2021/08/27 00:39:57;;;;;;;21.02;13.18;;;;;;;23.46;51.65;102386.69;5034777;28;20025;-79
2021/08/27 00:42:23;;;;;;;26.83;14.30;;;;;;;23.46;51.58;102392.28;5034780;28;20025;-78
2021/08/27 00:44:49;;;;;;;27.58;15.10;;;;;;;23.54;51.31;102385.69;5034704;28;20029;-78
2021/08/27 00:47:15;;;;;;;28.67;15.15;;;;;;;23.52;51.72;102382.47;5034712;28;20376;-78
2021/08/27 00:49:40;;;;;;;21.20;13.57;;;;;;;23.47;51.54;102379.94;5034611;28;20158;-78
2021/08/27 00:52:09;;;;;;;24.75;15.10;;;;;;;23.44;51.70;102381.47;5034633;28;20030;-78
2021/08/27 00:54:34;;;;;;;25.70;14.00;;;;;;;23.46;51.74;102381.09;5016884;28;20442;-78
2021/08/27 00:57:02;;;;;;;27.55;14.50;;;;;;;23.51;51.73;102383.63;5034637;28;20052;-78
2021/08/27 00:59:28;;;;;;;26.55;14.38;;;;;;;23.50;51.88;102374.47;5034508;28;20025;-78
2021/08/27 01:01:54;;;;;;;21.92;13.10;;;;;;;23.49;51.67;102372.00;5034446;28;20039;-78
2021/08/27 01:04:19;;;;;;;24.30;15.05;;;;;;;23.51;51.57;102367.69;4988968;28;1314578;-78
2021/08/27 01:06:51;;;;;;;20.52;12.65;;;;;;;23.52;51.65;102366.53;5035651;28;20026;-78
2021/08/27 01:09:46;;;;;;;25.42;15.48;;;;;;;23.50;51.59;102359.66;5051266;28;20029;-78
2021/08/27 01:12:24;;;;;;;25.55;14.23;;;;;;;23.45;51.61;102362.75;5035651;28;20025;-77
2021/08/27 01:14:53;;;;;;;24.88;14.15;;;;;;;23.48;51.45;102359.22;5035576;28;20029;-78
2021/08/27 01:17:27;;;;;;;25.75;14.20;;;;;;;23.43;51.83;102360.34;5035649;28;20033;-78
2021/08/27 01:20:08;;;;;;;22.35;13.90;;;;;;;23.47;51.81;102364.00;5035431;28;20115;-78
2021/08/27 01:22:57;;;;;;;20.55;14.05;;;;;;;23.39;51.86;102364.19;5035331;28;20056;-77
2021/08/27 01:25:24;;;;;;;21.92;13.25;;;;;;;23.48;51.44;102356.44;5017840;28;20060;-78
2021/08/27 01:27:52;;;;;;;24.25;15.35;;;;;;;23.51;51.71;102367.69;5035380;28;20029;-78
2021/08/27 01:30:40;;;;;;;29.38;15.32;;;;;;;23.48;51.77;102375.97;5034842;28;20034;-78
2021/08/27 01:33:16;;;;;;;19.58;13.93;;;;;;;23.45;51.56;102371.94;5035128;28;20390;-78
2021/08/27 01:35:47;;;;;;;24.77;13.82;;;;;;;23.41;51.87;102375.78;5035431;28;20030;-78
2021/08/27 01:38:15;;;;;;;23.30;14.02;;;;;;;23.41;51.66;102376.59;5035169;28;20036;-78
2021/08/27 01:40:45;;;;;;;24.35;13.68;;;;;;;23.42;51.90;102377.41;5035205;28;20034;-78
2021/08/27 01:43:14;;;;;;;26.88;14.50;;;;;;;23.39;51.81;102381.75;5034990;28;20091;-78
2021/08/27 01:45:42;;;;;;;24.93;14.03;;;;;;;23.34;52.02;102376.44;5034944;28;20021;-78
2021/08/27 01:48:09;;;;;;;22.73;14.10;;;;;;;23.26;51.95;102381.03;5035095;28;20021;-78
2021/08/27 01:50:36;;;;;;;23.00;14.82;;;;;;;23.23;51.95;102384.53;5034855;28;20029;-78
2021/08/27 01:53:03;;;;;;;24.65;15.63;;;;;;;23.30;51.79;102378.34;5034772;28;20028;-78
2021/08/27 01:55:29;;;;;;;28.17;16.35;;;;;;;23.31;51.79;102373.56;5016951;28;20025;-78
2021/08/27 01:57:55;;;;;;;23.13;15.93;;;;;;;23.26;51.81;102375.44;5034842;28;20032;-78
2021/08/27 02:00:22;;;;;;;24.30;14.82;;;;;;;23.25;52.04;102387.78;5034734;28;20037;-78
2021/08/27 02:02:49;;;;;;;21.83;13.40;;;;;;;23.31;51.79;102388.31;5034522;28;20060;-78
2021/08/27 02:05:16;;;;;;;22.42;14.35;;;;;;;23.33;51.90;102385.97;5034565;28;20395;-78
2021/08/27 02:07:45;;;;;;;19.73;14.07;;;;;;;23.34;51.82;102390.38;5034774;28;20064;-87
2021/08/27 02:10:11;;;;;;;20.90;14.82;;;;;;;23.38;51.88;102388.50;5034500;28;20035;-78
2021/08/27 02:12:36;;;;;;;22.08;14.73;;;;;;;23.42;51.54;102391.34;5034477;28;20379;-78
2021/08/27 02:15:03;;;;;;;20.90;14.38;;;;;;;23.47;51.68;102388.31;5034324;28;20365;-78
2021/08/27 02:17:29;;;;;;;22.15;14.77;;;;;;;23.36;51.91;102390.03;5034357;28;20025;-78
2021/08/27 02:19:55;;;;;;;24.13;15.68;;;;;;;23.28;52.21;102385.44;5034269;28;20125;-78
2021/08/27 02:22:23;;;;;;;23.67;16.30;;;;;;;23.33;52.11;102376.78;5034385;28;20101;-78
2021/08/27 02:25:21;;;;;;;22.27;17.08;;;;;;;23.21;52.46;102377.72;5034206;28;20112;-78
2021/08/27 02:27:48;;;;;;;20.08;15.45;;;;;;;23.20;52.25;102385.28;5016122;28;20621;-78
2021/08/27 02:30:15;;;;;;;21.70;15.75;;;;;;;23.23;52.41;102381.75;5034085;28;20032;-77
2021/08/27 02:32:43;;;;;;;19.95;15.20;;;;;;;23.25;52.28;102382.19;5034104;28;20471;-78
2021/08/27 02:35:11;;;;;;;21.20;14.35;;;;;;;23.31;51.96;102384.72;5033990;28;20021;-78
2021/08/27 02:37:39;;;;;;;21.35;18.13;;;;;;;23.34;51.79;102378.41;5034183;28;20105;-78
2021/08/27 02:40:06;;;;;;;21.48;15.82;;;;;;;23.31;51.99;102390.31;5033666;28;20033;-78
2021/08/27 02:42:32;;;;;;;24.85;18.35;;;;;;;23.37;51.79;102388.88;5033385;28;20021;-78
2021/08/27 02:45:00;;;;;;;21.75;17.00;;;;;;;23.36;51.93;102385.25;5033769;28;20025;-78
2021/08/27 02:47:25;;;;;;;18.42;15.65;;;;;;;23.36;51.61;102385.25;5033781;28;20025;-78
2021/08/27 02:49:51;;;;;;;19.70;15.98;;;;;;;23.38;51.44;102382.91;5033669;28;20036;-78
2021/08/27 02:52:28;;;;;;;23.25;18.42;;;;;;;23.40;51.27;102382.56;5015982;28;20403;-78
2021/08/27 02:54:57;;;;;;;22.50;17.83;;;;;;;23.41;51.31;102382.19;5033613;28;20570;-78
2021/08/27 02:57:26;;;;;;;20.67;17.50;;;;;;;23.41;51.26;102382.19;5015815;28;20036;-78
2021/08/27 02:59:58;;;;;;;20.17;15.60;;;;;;;23.43;51.25;102377.06;5033605;28;20033;-78
2021/08/27 03:02:26;;;;;;;17.73;14.38;;;;;;;23.40;51.35;102379.75;5015935;28;20815;-78
2021/08/27 03:05:14;;;;;;;17.55;14.13;;;;;;;23.42;51.25;102381.00;5033262;28;20506;-79
2021/08/27 03:07:56;;;;;;;17.23;12.77;;;;;;;23.40;51.25;102388.94;5033459;28;20057;-78
2021/08/27 03:10:32;;;;;;;15.18;12.18;;;;;;;23.41;51.00;102384.97;5015690;28;20387;-78
2021/08/27 03:13:04;;;;;;;22.00;13.95;;;;;;;23.42;51.02;102375.44;5033359;28;20036;-78
2021/08/27 03:15:37;;;;;;;20.58;13.98;;;;;;;23.46;50.85;102381.09;5033250;28;20053;-78
2021/08/27 03:18:09;;;;;;;19.27;13.15;;;;;;;23.46;50.93;102381.91;5033397;28;20029;-78
2021/08/27 03:20:42;;;;;;;14.65;11.43;;;;;;;23.55;51.07;102384.50;5033165;28;20393;-78
2021/08/27 03:23:11;;;;;;;16.58;11.95;;;;;;;23.44;51.18;102375.09;5033175;28;20053;-78
2021/08/27 03:25:41;;;;;;;17.02;11.45;;;;;;;23.48;51.08;102376.78;5033125;28;20045;-78
2021/08/27 03:28:13;;;;;;;14.13;11.18;;;;;;;23.51;50.77;102378.88;5033062;28;20021;-78
2021/08/27 03:30:41;;;;;;;15.48;10.63;;;;;;;23.47;51.02;102380.75;5033061;28;20026;-77
2021/08/27 03:33:09;;;;;;;14.32;11.23;;;;;;;23.38;51.04;102376.53;5015185;28;20022;-78
2021/08/27 03:35:35;;;;;;;13.82;10.73;;;;;;;23.52;50.57;102376.88;5032893;28;20116;-78
2021/08/27 03:38:04;;;;;;;15.23;11.25;;;;;;;23.53;50.74;102381.28;5032207;28;20025;-78
2021/08/27 03:40:31;;;;;;;15.10;11.35;;;;;;;23.61;50.59;102380.31;5030458;28;20037;-78
2021/08/27 03:42:59;;;;;;;15.00;10.18;;;;;;;23.58;50.70;102374.59;5032683;28;20025;-78
2021/08/27 03:45:25;;;;;;;17.33;11.48;;;;;;;23.63;50.32;102380.75;5015079;28;20124;-78
2021/08/27 03:47:51;;;;;;;13.55;10.68;;;;;;;23.62;50.45;102376.34;5032701;28;20029;-78
2021/08/27 03:50:18;;;;;;;14.70;10.43;;;;;;;23.68;50.38;102374.91;5032531;28;20450;-79
2021/08/27 03:52:45;;;;;;;23.50;12.10;;;;;;;23.71;50.19;102364.97;5032615;28;20460;-78
2021/08/27 03:55:13;;;;;;;17.38;11.63;;;;;;;23.74;50.30;102365.06;5032047;28;20025;-78
2021/08/27 03:57:41;;;;;;;19.58;11.50;;;;;;;23.72;49.92;102375.78;5013342;28;20061;-78
2021/08/27 04:00:07;;;;;;;18.73;12.20;;;;;;;23.51;50.84;102366.91;5031520;28;20026;-78
2021/08/27 04:02:34;;;;;;;18.02;12.55;;;;;;;23.40;50.94;102374.19;5032030;28;20040;-79
2021/08/27 04:05:17;;;;;;;16.65;10.95;;;;;;;23.38;51.40;102365.38;5031500;28;20077;-79
2021/08/27 04:07:43;;;;;;;13.07;10.77;;;;;;;23.45;50.93;102365.53;5031401;28;20026;-79
2021/08/27 04:10:10;;;;;;;18.58;11.45;;;;;;;23.50;50.83;102370.81;5030678;28;20579;-78
2021/08/27 04:12:38;;;;;;;19.77;12.20;;;;;;;23.52;50.77;102366.53;5030800;28;20064;-78
2021/08/27 04:15:04;;;;;;;17.27;12.23;;;;;;;23.55;50.63;102359.41;5030591;28;20528;-79
2021/08/27 04:17:29;;;;;;;16.45;11.40;;;;;;;23.54;50.88;102361.38;5030665;28;20021;-79
2021/08/27 04:19:56;;;;;;;22.33;11.90;;;;;;;23.51;50.84;102364.09;5030890;28;20499;-79
2021/08/27 04:22:21;;;;;;;17.15;11.20;;;;;;;23.54;50.93;102364.19;5030538;28;20037;-79
2021/08/27 04:24:47;;;;;;;15.23;11.23;;;;;;;23.51;50.52;102370.50;5031903;28;20029;-78
2021/08/27 04:27:12;;;;;;;13.93;9.35;;;;;;;23.59;50.37;102368.69;5032347;28;20029;-78
2021/08/27 04:29:38;;;;;;;12.30;9.80;;;;;;;23.54;50.62;102371.75;5032429;28;20064;-78
2021/08/27 04:32:04;;;;;;;14.05;9.63;;;;;;;23.53;50.77;102361.75;5032585;28;20033;-78
2021/08/27 04:34:30;;;;;;;12.77;9.13;;;;;;;23.51;50.57;102369.69;5032310;28;20025;-78
2021/08/27 04:36:55;;;;;;;15.40;9.52;;;;;;;23.48;50.97;102365.63;5014671;28;20091;-78
2021/08/27 04:39:21;;;;;;;13.02;9.35;;;;;;;23.47;50.84;102369.59;5032324;28;20108;-78
2021/08/27 04:41:47;;;;;;;14.27;9.48;;;;;;;23.48;50.73;102356.44;5032159;28;20036;-78
2021/08/27 04:44:13;;;;;;;12.18;8.77;;;;;;;23.54;50.62;102372.53;5032227;28;20033;-78
2021/08/27 04:46:38;;;;;;;13.05;10.35;;;;;;;23.54;50.97;102366.97;5032172;28;20565;-79
2021/08/27 04:49:04;;;;;;;13.75;8.50;;;;;;;23.53;50.85;102365.34;5032194;28;20034;-78
2021/08/27 04:51:29;;;;;;;14.25;9.82;;;;;;;23.53;50.54;102370.13;5032090;28;20033;-77
2021/08/27 04:53:55;;;;;;;13.77;9.27;;;;;;;23.66;50.36;102382.03;5032246;28;20064;-78
2021/08/27 04:56:20;;;;;;;12.52;8.63;;;;;;;23.59;50.65;102379.84;5032137;28;20033;-78
2021/08/27 04:58:46;;;;;;;14.63;8.85;;;;;;;23.62;50.42;102381.91;5032127;28;20084;-78
2021/08/27 05:01:12;;;;;;;16.40;9.88;;;;;;;23.58;50.63;102381.00;5032132;28;20480;-78
2021/08/27 05:03:37;;;;;;;16.17;9.02;;;;;;;23.61;50.43;102383.09;5032077;28;20030;-79
2021/08/27 05:06:03;;;;;;;14.02;9.68;;;;;;;23.60;50.40;102387.06;5035711;28;20025;-79
2021/08/27 05:08:28;;;;;;;13.85;8.88;;;;;;;23.54;50.69;102389.28;5035735;28;20053;-79
2021/08/27 05:10:54;;;;;;;13.95;8.90;;;;;;;23.59;50.85;102391.00;5035849;28;20669;-78
2021/08/27 05:13:20;;;;;;;13.98;9.40;;;;;;;23.62;50.64;102387.50;5035812;28;20479;-79
2021/08/27 05:15:46;;;;;;;12.82;9.30;;;;;;;23.65;50.15;102389.56;5035673;28;20032;-78
2021/08/27 05:18:12;;;;;;;19.02;9.88;;;;;;;23.52;50.56;102394.44;5035512;28;20030;-79
2021/08/27 05:20:38;;;;;;;13.93;9.10;;;;;;;23.62;50.64;102400.66;5035483;28;20030;-78
2021/08/27 05:23:03;;;;;;;15.48;10.55;;;;;;;23.67;50.39;102400.38;5035392;28;20017;-77
2021/08/27 05:25:29;;;;;;;15.60;9.63;;;;;;;23.65;50.23;102402.69;5035632;28;20021;-79
2021/08/27 05:27:55;;;;;;;14.48;10.50;;;;;;;23.65;50.73;102406.28;5035387;28;20052;-78
2021/08/27 05:30:21;;;;;;;16.55;9.73;;;;;;;23.60;50.43;102398.22;5035605;28;20064;-79
2021/08/27 05:32:47;;;;;;;19.33;11.65;;;;;;;23.60;50.51;102401.00;5035147;28;20028;-78
2021/08/27 05:35:13;;;;;;;12.93;9.80;;;;;;;23.62;50.51;102407.03;5035142;28;20510;-78
2021/08/27 05:37:38;;;;;;;15.50;10.70;;;;;;;23.66;50.81;102404.34;5035253;28;20025;-78
2021/08/27 05:40:05;;;;;;;16.60;9.73;;;;;;;23.63;50.80;102402.25;5035036;28;20503;-79
2021/08/27 05:42:31;;;;;;;14.65;11.55;;;;;;;23.66;50.56;102396.78;5035056;28;20025;-78
2021/08/27 05:44:57;;;;;;;18.80;11.10;;;;;;;23.63;50.83;102410.63;5034948;28;20379;-79
2021/08/27 05:47:23;;;;;;;17.58;10.70;;;;;;;23.65;50.54;102413.84;5017254;28;20029;-78
2021/08/27 05:49:48;;;;;;;17.58;10.63;;;;;;;23.74;50.57;102417.28;5034936;28;20031;-77
2021/08/27 05:52:14;;;;;;;15.18;10.23;;;;;;;23.83;50.46;102417.91;5016963;28;20033;-77
2021/08/27 05:54:40;;;;;;;18.75;12.25;;;;;;;23.79;50.38;102406.63;5034499;28;20125;-77
2021/08/27 05:57:06;;;;;;;15.82;12.18;;;;;;;23.70;50.79;102410.81;5016954;28;20542;-77
2021/08/27 05:59:31;;;;;;;20.45;12.57;;;;;;;23.64;51.04;102421.44;5017164;28;20025;-78
2021/08/27 06:01:57;;;;;;;21.23;12.63;;;;;;;23.73;50.95;102426.84;5016618;28;20029;-78
2021/08/27 06:04:22;;;;;;;16.92;11.57;;;;;;;23.68;50.65;102432.69;5034411;28;20496;-77
2021/08/27 06:06:49;;;;;;;17.48;10.48;;;;;;;23.75;50.48;102430.88;5016795;28;20026;-77
2021/08/27 06:09:15;;;;;;;16.25;10.55;;;;;;;23.78;50.40;102424.56;5034468;28;20112;-78
2021/08/27 06:11:41;;;;;;;13.77;11.07;;;;;;;23.75;50.50;102430.88;5034507;28;20104;-79
2021/08/27 06:14:07;;;;;;;18.60;11.25;;;;;;;23.81;50.43;102434.22;5034341;28;20026;-79
2021/08/27 06:16:33;;;;;;;15.90;12.05;;;;;;;23.97;49.92;102436.97;5033282;28;20100;-78
2021/08/27 06:19:02;;;;;;;16.15;11.38;;;;;;;24.03;50.03;102441.91;5034452;28;20414;-78
2021/08/27 06:21:28;;;;;;;15.18;11.65;;;;;;;24.09;49.93;102439.63;5034185;28;20029;-79
2021/08/27 06:23:54;;;;;;;16.73;11.23;;;;;;;24.12;49.98;102450.06;5034385;28;20091;-79
2021/08/27 06:26:19;;;;;;;13.98;10.02;;;;;;;24.16;49.41;102450.94;5016423;28;20090;-70
2021/08/27 06:28:45;;;;;;;14.98;9.80;;;;;;;24.17;49.78;102455.34;5034127;28;20179;-70
2021/08/27 06:31:11;;;;;;;17.80;10.20;;;;;;;24.16;49.54;102452.94;5016485;28;20030;-70
2021/08/27 06:33:37;;;;;;;15.73;11.30;;;;;;;24.18;49.67;102457.00;5034034;28;20022;-70
2021/08/27 06:36:04;;;;;;;16.33;12.38;;;;;;;24.20;49.67;102457.44;5016231;28;20126;-71
2021/08/27 06:38:29;;;;;;;17.48;10.68;;;;;;;24.24;49.29;102455.50;5033890;28;20091;-71
2021/08/27 06:41:00;;;;;;;18.15;11.48;;;;;;;24.21;49.99;102453.47;5034152;28;20022;-71
2021/08/27 06:43:29;;;;;;;22.83;12.18;;;;;;;24.32;49.43;102456.47;5033890;28;20424;-71
2021/08/27 06:45:55;;;;;;;15.60;11.00;;;;;;;24.33;49.45;102470.13;5034000;28;20026;-71
2021/08/27 06:48:21;;;;;;;18.48;10.48;;;;;;;24.25;49.72;102465.50;5033739;28;20033;-71
2021/08/27 06:50:48;;;;;;;17.13;12.15;;;;;;;24.33;49.36;102467.34;5033685;28;20521;-70
2021/08/27 06:53:14;;;;;;;13.88;11.57;;;;;;;24.34;49.02;102471.75;5033655;28;20032;-71
2021/08/27 06:55:39;;;;;;;15.15;11.23;;;;;;;24.34;49.25;102468.94;5033878;28;20032;-70
2021/08/27 06:58:06;;;;;;;16.33;12.00;;;;;;;24.31;49.67;102464.03;5033823;28;20384;-71
2021/08/27 07:00:32;;;;;;;17.25;11.68;;;;;;;24.31;49.44;102464.03;5033328;28;20033;-71
2021/08/27 07:02:58;;;;;;;23.98;12.70;;;;;;;24.38;49.07;102460.63;5033579;28;20026;-71
2021/08/27 07:05:24;;;;;;;16.33;11.98;;;;;;;24.38;49.60;102462.63;5033174;28;20055;-70
2021/08/27 07:07:50;;;;;;;19.67;13.13;;;;;;;24.45;49.32;102463.59;5033598;28;20029;-87
2021/08/27 07:10:15;;;;;;;22.80;12.80;;;;;;;24.40;49.77;102463.06;5033272;28;20068;-71
2021/08/27 07:12:41;;;;;;;23.98;13.45;;;;;;;24.47;49.27;102466.81;5033880;28;20033;-94
2021/08/27 07:15:08;;;;;;;16.75;12.02;;;;;;;24.65;49.22;102467.19;5034275;28;20021;-71
2021/08/27 07:17:33;;;;;;;20.60;12.43;;;;;;;24.74;49.05;102465.00;5033302;28;20025;-73
2021/08/27 07:20:00;;;;;;;17.05;11.18;;;;;;;24.75;49.14;102463.81;5015580;28;20029;-72
2021/08/27 07:22:25;;;;;;;26.77;13.63;;;;;;;24.87;48.92;102468.44;5033503;28;20029;-71
2021/08/27 07:24:51;;;;;;;24.13;12.77;;;;;;;24.86;48.65;102462.03;5015733;28;20028;-72
2021/08/27 07:27:16;;;;;;;15.77;11.80;;;;;;;24.81;49.00;102467.94;5032690;28;20021;-72
2021/08/27 07:29:42;;;;;;;17.98;11.05;;;;;;;24.94;48.68;102464.94;5033334;28;20025;-72
2021/08/27 07:32:11;;;;;;;20.38;12.07;;;;;;;25.01;48.86;102467.88;5032949;28;20391;-72
2021/08/27 07:34:42;;;;;;;17.45;10.30;;;;;;;25.12;48.53;102463.34;5033460;28;20388;-71
2021/08/27 07:37:08;;;;;;;17.50;10.80;;;;;;;25.09;48.53;102459.31;5033689;28;20035;-88
2021/08/27 07:39:34;;;;;;;17.25;10.25;;;;;;;25.25;48.39;102467.59;5028889;28;20022;-90
2021/08/27 07:41:59;;;;;;;12.25;7.43;;;;;;;25.32;47.92;102466.91;5032050;28;20111;-89
2021/08/27 07:44:25;;;;;;;18.73;8.80;;;;;;;25.19;48.56;102469.06;5033056;28;20144;-76
2021/08/27 07:46:51;;;;;;;29.63;11.52;;;;;;;25.19;48.29;102471.88;5032771;28;20518;-76
2021/08/27 07:49:17;;;;;;;15.77;9.98;;;;;;;25.28;48.33;102466.84;5031149;28;20367;-75
2021/08/27 07:51:47;;;;;;;16.25;7.68;;;;;;;25.36;48.21;102476.97;5032105;28;20083;-75
2021/08/27 07:54:16;;;;;;;16.38;10.18;;;;;;;25.39;47.83;102479.03;5032637;28;20537;-74
2021/08/27 07:56:42;;;;;;;16.00;8.40;;;;;;;25.46;48.20;102476.34;5032761;28;20030;-75
2021/08/27 07:59:08;;;;;;;12.20;8.07;;;;;;;25.46;48.02;102478.31;5032488;28;20025;-74
2021/08/27 08:01:34;;;;;;;14.88;9.10;;;;;;;25.52;47.57;102481.63;5014814;28;20037;-78
2021/08/27 08:04:02;;;;;;;17.27;9.00;;;;;;;25.57;47.47;102484.13;5014238;28;20064;-86
2021/08/27 08:06:29;;;;;;;14.90;9.45;;;;;;;25.52;47.46;102479.63;5013252;28;20026;-83
2021/08/27 08:08:55;;;;;;;14.40;8.35;;;;;;;25.60;47.05;102478.56;5020426;28;20033;-75
2021/08/27 08:11:21;;;;;;;18.60;9.27;;;;;;;25.61;47.19;102473.78;5032618;28;20036;-75
2021/08/27 08:13:46;;;;;;;19.27;8.93;;;;;;;25.61;47.37;102476.56;5014676;28;20034;-81
2021/08/27 08:16:13;;;;;;;13.93;7.60;;;;;;;25.54;47.24;102488.47;5032738;28;20032;-74
2021/08/27 08:18:39;;;;;;;15.52;8.73;;;;;;;25.65;46.70;102477.47;5031094;28;20071;-74
2021/08/27 08:21:05;;;;;;;11.25;7.95;;;;;;;25.61;46.81;102488.59;5031248;28;20038;-74
2021/08/27 08:23:32;;;;;;;21.17;8.23;;;;;;;25.57;47.25;102484.94;5012731;28;20451;-74
2021/08/27 08:25:58;;;;;;;13.38;7.22;;;;;;;25.67;46.66;102484.28;5032730;28;20037;-75
2021/08/27 08:28:23;;;;;;;15.02;7.30;;;;;;;25.78;46.35;102489.31;5050494;28;20056;-74
2021/08/27 08:30:49;;;;;;;11.80;7.18;;;;;;;25.94;46.27;102485.16;5032524;28;20033;-75
2021/08/27 08:33:15;;;;;;;17.13;7.47;;;;;;;25.96;46.25;102493.19;5050468;28;20056;-75
2021/08/27 08:35:41;;;;;;;17.10;6.47;;;;;;;25.82;45.99;102485.34;5049983;28;20060;-72
2021/08/27 08:38:06;;;;;;;15.00;7.30;;;;;;;25.97;45.79;102487.19;5042623;28;20413;-81
2021/08/27 08:40:38;;;;;;;14.15;7.20;;;;;;;25.95;45.31;102489.56;5035313;28;20036;-73
2021/08/27 08:43:03;;;;;;;16.90;7.72;;;;;;;26.05;45.47;102488.13;5014226;28;20026;-80
2021/08/27 08:45:30;;;;;;;17.40;6.80;;;;;;;26.21;45.41;102497.16;5017882;28;20060;-81
2021/08/27 08:47:57;;;;;;;13.18;5.60;;;;;;;26.25;45.26;102498.03;5035596;28;20133;-77
2021/08/27 08:50:23;;;;;;;13.07;5.35;;;;;;;26.32;44.83;102497.31;5035147;28;20576;-80
2021/08/27 08:52:49;;;;;;;10.48;5.22;;;;;;;26.35;44.45;102490.94;5018702;28;20033;-79
2021/08/27 08:55:15;;;;;;;9.77;5.32;;;;;;;26.29;43.96;102498.06;5018435;28;20037;-77
2021/08/27 08:57:41;;;;;;;13.70;6.20;;;;;;;26.35;44.11;102490.13;5018478;28;20037;-71
2021/08/27 09:00:07;;;;;;;13.07;6.15;;;;;;;26.39;43.66;102489.03;5032553;28;20443;-72
2021/08/27 09:02:33;;;;;;;12.80;5.18;;;;;;;26.36;43.55;102491.75;5035512;28;20033;-83
2021/08/27 09:04:58;;;;;;;14.00;6.03;;;;;;;26.43;43.15;102503.09;5033902;28;20063;-73
2021/08/27 09:07:24;;;;;;;18.70;6.18;;;;;;;26.45;43.00;102497.91;5017962;28;20037;-73
2021/08/27 09:09:50;;;;;;;12.65;5.55;;;;;;;26.46;42.63;102497.53;5035585;28;20109;-73
2021/08/27 09:12:23;;;;;;;15.38;5.20;;;;;;;26.43;42.77;102497.47;5017823;28;20185;-73
2021/08/27 09:15:07;;;;;;;14.95;5.45;;;;;;;26.27;42.08;102498.44;5035177;28;20021;-73
2021/08/27 09:17:37;;;;;;;12.35;5.47;;;;;;;26.34;42.15;102500.53;5033842;28;20033;-72
2021/08/27 09:20:11;;;;;;;15.18;6.25;;;;;;;26.30;42.40;102499.69;5034159;28;20392;-72
2021/08/27 09:22:51;;;;;;;13.82;6.38;;;;;;;26.28;42.41;102497.25;5034554;28;20029;-72
2021/08/27 09:25:19;;;;;;;15.85;6.03;;;;;;;26.31;42.23;102492.91;5035660;28;20025;-72
2021/08/27 09:28:01;;;;;;;12.95;5.65;;;;;;;26.23;42.24;102491.19;5035264;28;20036;-72
2021/08/27 09:30:27;;;;;;;13.57;4.93;;;;;;;26.22;42.08;102489.53;5035204;28;20079;-72
2021/08/27 09:32:56;;;;;;;10.48;4.72;;;;;;;26.18;41.87;102494.31;5035217;28;20125;-72
2021/08/27 09:35:23;;;;;;;9.47;4.83;;;;;;;26.31;42.19;102497.69;5035094;28;20110;-72
2021/08/27 09:37:52;;;;;;;13.23;5.43;;;;;;;26.31;41.84;102501.31;5035114;28;20083;-72
2021/08/27 09:40:26;;;;;;;9.65;4.35;;;;;;;26.32;41.78;102502.91;5034875;28;20017;-72
2021/08/27 09:42:53;;;;;;;11.75;5.32;;;;;;;26.33;41.66;102501.72;5035185;28;20038;-73
2021/08/27 09:45:31;;;;;;;7.70;4.07;;;;;;;26.44;41.41;102502.69;5032677;28;20021;-73
2021/08/27 09:48:02;;;;;;;19.48;5.25;;;;;;;26.35;41.25;102509.75;5033987;28;20038;-73
2021/08/27 09:50:30;;;;;;;10.90;4.25;;;;;;;26.50;40.91;102509.59;5033139;28;20375;-75
2021/08/27 09:52:59;;;;;;;12.45;4.57;;;;;;;26.43;40.87;102509.50;5034881;28;20033;-73
2021/08/27 09:55:27;;;;;;;12.13;4.47;;;;;;;26.27;40.44;102518.06;5034636;28;20108;-72
2021/08/27 09:58:04;;;;;;;17.20;5.43;;;;;;;26.29;40.84;102510.06;5033704;28;20040;-72
2021/08/27 10:00:34;;;;;;;8.95;4.10;;;;;;;26.41;40.66;102514.69;5034458;28;20025;-72
2021/08/27 10:03:03;;;;;;;11.32;5.63;;;;;;;26.40;40.36;102510.28;5034650;28;20432;-71
2021/08/27 10:05:38;;;;;;;9.48;4.43;;;;;;;26.49;40.07;102522.00;5034216;28;20045;-71
2021/08/27 10:08:21;;;;;;;9.77;4.35;;;;;;;26.51;39.87;102522.41;5034743;28;20518;-72
2021/08/27 10:10:53;;;;;;;9.75;4.75;;;;;;;26.59;39.77;102517.72;5033135;28;20029;-71
2021/08/27 10:13:20;;;;;;;7.97;4.22;;;;;;;26.64;39.74;102519.38;5032763;28;20514;-71
2021/08/27 10:15:47;;;;;;;12.18;4.60;;;;;;;26.73;39.53;102511.50;5031414;28;20036;-72
2021/08/27 10:18:12;;;;;;;11.43;4.60;;;;;;;26.81;39.06;102516.00;5034734;28;20025;-72
2021/08/27 10:20:41;;;;;;;13.13;4.70;;;;;;;27.06;38.33;102514.34;5034185;28;20083;-84
2021/08/27 10:23:11;;;;;;;16.55;5.28;;;;;;;26.98;38.39;102501.38;5032866;28;20026;-84
2021/08/27 10:25:39;;;;;;;40.65;6.63;;;;;;;26.98;38.62;102515.41;5032795;28;20052;-73
2021/08/27 10:28:08;;;;;;;10.85;4.22;;;;;;;26.98;38.68;102518.22;5032662;28;20036;-72
2021/08/27 10:30:59;;;;;;;9.68;4.50;;;;;;;27.03;37.91;102517.84;5032646;28;20029;-72
2021/08/27 10:33:39;;;;;;;10.65;4.75;;;;;;;26.74;38.55;102515.91;5027807;28;20028;-73
2021/08/27 10:36:29;;;;;;;13.85;4.93;;;;;;;26.65;39.31;102526.59;5018019;28;21977;-74
2021/08/27 10:38:56;;;;;;;17.02;5.78;;;;;;;26.70;38.98;102517.88;4999886;28;20041;-73
2021/08/27 10:41:37;;;;;;;6.88;3.67;;;;;;;26.73;38.60;102522.69;5017784;28;20076;-73
2021/08/27 10:44:04;;;;;;;12.13;4.97;;;;;;;26.75;38.70;102517.50;5017479;28;20095;-73
2021/08/27 10:46:44;;;;;;;11.52;4.50;;;;;;;26.90;38.72;102516.50;5027674;28;20052;-72
2021/08/27 10:49:15;;;;;;;9.68;4.20;;;;;;;26.90;38.70;102519.31;5015081;28;21252;-73
2021/08/27 10:51:46;;;;;;;12.23;5.60;;;;;;;27.16;38.30;102506.41;5032955;28;20092;-73
2021/08/27 10:54:14;;;;;;;17.33;5.15;;;;;;;27.23;38.18;102500.88;5033728;28;20498;-73
2021/08/27 10:56:55;;;;;;;10.38;4.60;;;;;;;27.15;38.23;102505.59;5022131;28;20585;-73
2021/08/27 10:59:21;;;;;;;6.60;3.95;;;;;;;27.07;38.62;102509.53;5017347;28;20562;-74
2021/08/27 11:02:00;;;;;;;11.18;4.93;;;;;;;26.98;38.20;102501.38;4998384;28;20419;-73
2021/08/27 11:04:27;;;;;;;10.35;4.38;;;;;;;27.05;37.85;102504.31;5016028;28;20040;-73
2021/08/27 11:07:12;;;;;;;15.00;5.25;;;;;;;27.08;37.88;102505.53;4999950;28;20380;-74
2021/08/27 11:09:38;;;;;;;9.73;4.45;;;;;;;26.98;38.23;102498.59;5017005;28;20040;-74
2021/08/27 11:12:24;;;;;;;12.38;4.60;;;;;;;27.22;37.96;102504.88;5016392;28;20025;-73
2021/08/27 11:14:54;;;;;;;11.80;4.35;;;;;;;26.70;38.73;102503.84;5017518;28;20021;-73
2021/08/27 11:17:21;;;;;;;9.40;4.50;;;;;;;26.88;38.63;102502.06;5016692;28;20381;-73